CheckWX is a tool to help pilots better visualize weather data.  It is not intended as a substitute for an official pre-flight weather briefing.

23:05:51 UTC

KSSF TAF
Stinson Municipal Airport
San Antonio, Texas, USA
KSSF 261720Z 2618/2718 09008KT P6SM SCT250 FM271500 15010KT P6SM BKN100

Mar-26@
18:00 UTC

Mar-26 @ 18:00 UTC

Mar-27@
15:00 UTC

Mar-27 @ 15:00 UTC

KSSF 261720Z 2618/2718 09008KT P6SM SCT250
Wind
  • 090° at 8 KTS
Cloud Levels
  • Scattered at 25,000' AGL

Mar-27@
15:00 UTC

Mar-27 @ 15:00 UTC

Mar-27@
18:00 UTC

Mar-27 @ 18:00 UTC

FM271500 15010KT P6SM BKN100

From

From Standard forecast or significant change

Wind
  • 150° at 10 KTS
Cloud Levels
  • Broken at 10,000' AGL